createdAt,value
2023-05-10T00:01:44.108Z,100140.97
2023-05-10T00:04:12.250Z,100137.22
2023-05-10T00:06:42.792Z,100137.44
2023-05-10T00:09:12.352Z,100129.34
2023-05-10T00:11:40.323Z,100131.44
2023-05-10T00:14:08.445Z,100131.44
2023-05-10T00:16:36.588Z,100134.13
2023-05-10T00:19:04.604Z,100125.81
2023-05-10T00:21:33.314Z,100120.44
2023-05-10T00:24:01.234Z,100110.47
2023-05-10T00:26:30.599Z,100107.75
2023-05-10T00:28:59.632Z,100105.06
2023-05-10T00:31:27.894Z,100096.97
2023-05-10T00:33:55.902Z,100092.63
2023-05-10T00:36:24.011Z,100088.25
2023-05-10T00:38:52.006Z,100089.94
2023-05-10T00:41:20.063Z,100086.63
2023-05-10T00:43:49.391Z,100087.66
2023-05-10T00:46:17.714Z,100079.78
2023-05-10T00:48:45.953Z,100087.06
2023-05-10T00:51:14.027Z,100083.75
2023-05-10T00:53:42.036Z,100084.81
2023-05-10T00:56:10.064Z,100082.94
2023-05-10T00:58:38.103Z,100079.41
2023-05-10T01:01:07.967Z,100075.03
2023-05-10T01:03:35.893Z,100069.66
2023-05-10T01:06:04.380Z,100063.63
2023-05-10T01:08:32.323Z,100066.34
2023-05-10T01:11:00.277Z,100053.91
2023-05-10T01:13:33.576Z,100060.94
2023-05-10T01:16:03.023Z,100060.94
2023-05-10T01:18:32.495Z,100065.75
2023-05-10T01:21:07.475Z,100054.34
2023-05-10T01:23:52.273Z,100057.03
2023-05-10T01:26:55.607Z,100052.69
2023-05-10T01:29:36.232Z,100052.47
2023-05-10T01:32:30.910Z,100048.13
2023-05-10T01:35:04.940Z,100044.38
2023-05-10T01:37:38.854Z,100048.97
2023-05-10T01:40:11.223Z,100041.88
2023-05-10T01:42:42.008Z,100043.56
2023-05-10T01:45:15.212Z,100044.38
2023-05-10T01:47:45.074Z,100044.59
2023-05-10T01:50:22.840Z,100040.88
2023-05-10T01:52:53.850Z,100041.47
2023-05-10T01:55:23.451Z,100030.69
2023-05-10T01:57:53.723Z,100030.69
2023-05-10T02:00:21.695Z,100032.31
2023-05-10T02:02:51.255Z,100028.00
2023-05-10T02:05:19.333Z,100020.72
2023-05-10T02:07:47.387Z,100030.69
2023-05-10T02:10:15.503Z,100025.06
2023-05-10T02:12:44.247Z,100025.06
2023-05-10T02:15:13.632Z,100024.84
2023-05-10T02:17:41.815Z,100026.47
2023-05-10T02:20:11.788Z,100017.34
2023-05-10T02:22:39.864Z,100020.06
2023-05-10T02:25:08.513Z,100014.44
2023-05-10T02:27:36.664Z,100007.38
2023-05-10T02:30:04.892Z,100001.19
2023-05-10T02:32:33.133Z,100008.81
2023-05-10T02:35:01.236Z,100013.97
2023-05-10T02:37:30.634Z,100003.19
2023-05-10T02:39:58.713Z,100009.41
2023-05-10T02:42:28.687Z,99999.22
2023-05-10T02:44:58.792Z,100007.31
2023-05-10T02:47:26.874Z,99994.44
2023-05-10T02:49:54.992Z,99997.94
2023-05-10T02:52:25.388Z,99992.34
2023-05-10T02:54:56.774Z,99986.72
2023-05-10T02:57:27.291Z,99989.41
2023-05-10T02:59:55.577Z,99976.75
2023-05-10T03:02:23.621Z,99983.19
2023-05-10T03:04:52.213Z,99980.28
2023-05-10T03:07:22.269Z,99977.59
2023-05-10T03:09:50.441Z,99979.47
2023-05-10T03:12:23.402Z,99985.69
2023-05-10T03:14:55.574Z,99988.38
2023-05-10T03:17:25.945Z,99979.47
2023-05-10T03:19:55.875Z,99991.91
2023-05-10T03:22:27.000Z,99981.09
2023-05-10T03:24:56.568Z,99992.72
2023-05-10T03:27:26.364Z,99994.38
2023-05-10T03:29:55.040Z,99988.13
2023-05-10T03:32:23.000Z,99992.50
2023-05-10T03:34:51.056Z,99991.44
2023-05-10T03:37:19.092Z,99992.50
2023-05-10T03:39:47.136Z,99989.00
2023-05-10T03:42:15.194Z,99986.03
2023-05-10T03:44:44.771Z,99986.03
2023-05-10T03:47:13.086Z,99985.22
2023-05-10T03:49:41.164Z,99983.13
2023-05-10T03:52:09.431Z,99981.25
2023-05-10T03:54:37.456Z,99983.72
2023-05-10T03:57:05.386Z,99981.03
2023-05-10T03:59:33.291Z,99976.47
2023-05-10T04:02:02.896Z,99983.50
2023-05-10T04:04:31.133Z,99984.78
2023-05-10T04:06:59.202Z,99990.16
2023-05-10T04:09:27.387Z,99989.34
2023-05-10T04:11:55.466Z,99983.13
2023-05-10T04:14:23.469Z,99988.53
2023-05-10T04:16:51.681Z,99989.81
2023-05-10T04:19:21.405Z,99997.09
2023-05-10T04:21:49.475Z,99996.22
2023-05-10T04:24:19.574Z,99991.06
2023-05-10T04:26:49.955Z,100001.88
2023-05-10T04:29:17.834Z,99998.56
2023-05-10T04:31:45.773Z,99999.38
2023-05-10T04:34:13.731Z,100003.75
2023-05-10T04:36:43.094Z,100011.00
2023-05-10T04:39:11.127Z,100006.44
2023-05-10T04:41:40.312Z,100004.31
2023-05-10T04:44:08.382Z,100008.47
2023-05-10T04:46:36.402Z,100005.53
2023-05-10T04:49:04.428Z,100009.66
2023-05-10T04:51:32.990Z,100001.34
2023-05-10T04:54:06.662Z,100000.91
2023-05-10T04:56:35.015Z,99997.78
2023-05-10T04:59:03.037Z,99996.09
2023-05-10T05:01:31.160Z,100002.09
2023-05-10T05:03:59.462Z,100007.50
2023-05-10T05:06:28.413Z,99995.06
2023-05-10T05:08:56.387Z,99996.34
2023-05-10T05:11:26.566Z,100000.06
2023-05-10T05:13:54.655Z,100011.31
2023-05-10T05:16:22.718Z,99997.22
2023-05-10T05:18:51.893Z,99996.38
2023-05-10T05:21:20.510Z,100002.25
2023-05-10T05:23:48.477Z,99996.84
2023-05-10T05:26:17.079Z,100007.03
2023-05-10T05:28:46.414Z,100000.59
2023-05-10T05:31:14.946Z,100001.63
2023-05-10T05:33:42.965Z,99994.59
2023-05-10T05:36:11.535Z,99993.97
2023-05-10T05:38:39.572Z,99994.81
2023-05-10T05:41:07.566Z,99995.66
2023-05-10T05:43:38.026Z,99995.66
2023-05-10T05:46:08.572Z,99993.97
2023-05-10T05:48:36.731Z,99994.81
2023-05-10T05:51:07.036Z,100011.59
2023-05-10T05:53:35.500Z,100003.50
2023-05-10T05:56:04.652Z,99999.78
2023-05-10T05:58:32.628Z,99999.78
2023-05-10T06:01:00.669Z,99996.03
2023-05-10T06:03:30.180Z,100000.59
2023-05-10T06:05:58.175Z,100000.59
2023-05-10T06:08:26.768Z,100008.47
2023-05-10T06:10:54.843Z,100002.25
2023-05-10T06:13:22.886Z,100003.88
2023-05-10T06:15:50.903Z,100009.28
2023-05-10T06:18:18.857Z,100000.59
2023-05-10T06:20:48.484Z,100002.25
2023-05-10T06:23:16.406Z,99996.03
2023-05-10T06:25:44.356Z,99998.72
2023-05-10T06:28:12.420Z,100003.88
2023-05-10T06:30:40.482Z,100004.94
2023-05-10T06:33:08.385Z,99993.31
2023-05-10T06:35:36.321Z,100001.41
2023-05-10T06:38:05.687Z,100003.31
2023-05-10T06:40:33.977Z,100014.91
2023-05-10T06:43:01.962Z,100004.72
2023-05-10T06:45:30.280Z,100009.28
2023-05-10T06:47:58.289Z,100017.38
2023-05-10T06:50:26.428Z,100014.47
2023-05-10T06:52:54.384Z,100012.59
2023-05-10T06:55:23.773Z,100017.16
2023-05-10T06:57:51.779Z,100017.97
2023-05-10T07:00:21.520Z,100021.50
2023-05-10T07:02:49.799Z,100019.66
2023-05-10T07:05:18.372Z,100025.63
2023-05-10T07:07:46.625Z,100016.72
2023-05-10T07:10:14.525Z,100017.53
2023-05-10T07:12:44.393Z,100022.94
2023-05-10T07:15:12.755Z,100022.09
2023-05-10T07:17:42.515Z,100029.19
2023-05-10T07:20:12.755Z,100027.91
2023-05-10T07:22:43.865Z,100026.41
2023-05-10T07:25:12.031Z,100023.69
2023-05-10T07:27:39.987Z,100027.81
2023-05-10T07:30:10.775Z,100030.34
2023-05-10T07:32:40.560Z,100018.28
2023-05-10T07:35:09.469Z,100024.50
2023-05-10T07:37:37.476Z,100022.16
2023-05-10T07:40:06.012Z,100014.47
2023-05-10T07:42:33.993Z,100027.72
2023-05-10T07:45:04.932Z,100027.25
2023-05-10T07:47:34.368Z,100023.53
2023-05-10T07:50:02.605Z,100023.09
2023-05-10T07:52:30.552Z,100023.69
2023-05-10T07:54:58.720Z,100025.13
2023-05-10T07:57:26.709Z,100028.41
2023-05-10T07:59:54.806Z,100029.59
2023-05-10T08:02:22.892Z,100035.81
2023-05-10T08:04:52.674Z,100034.56
2023-05-10T08:07:20.624Z,100035.38
2023-05-10T08:09:48.613Z,100018.13
2023-05-10T08:12:16.748Z,100022.47
2023-05-10T08:14:44.849Z,100022.03
2023-05-10T08:17:12.784Z,100019.09
2023-05-10T08:19:40.725Z,100030.50
2023-05-10T08:22:10.220Z,100019.47
2023-05-10T08:24:39.463Z,100024.66
2023-05-10T08:27:07.535Z,100033.34
2023-05-10T08:29:46.293Z,100026.91
2023-05-10T08:32:17.809Z,100032.06
2023-05-10T08:34:45.805Z,100028.53
2023-05-10T08:37:15.196Z,100029.59
2023-05-10T08:39:43.150Z,100026.91
2023-05-10T08:42:11.410Z,100036.66
2023-05-10T08:44:39.501Z,100032.66
2023-05-10T08:47:08.697Z,100031.84
2023-05-10T08:49:36.890Z,100037.25
2023-05-10T08:52:06.480Z,100036.44
2023-05-10T08:54:36.607Z,100031.84
2023-05-10T08:57:04.829Z,100038.06
2023-05-10T08:59:33.018Z,100030.56
2023-05-10T09:02:01.299Z,100034.09
2023-05-10T09:04:29.600Z,100045.50
2023-05-10T09:06:57.707Z,100040.91
2023-05-10T09:09:25.865Z,100051.13
2023-05-10T09:11:56.005Z,100038.69
2023-05-10T09:14:23.982Z,100042.19
2023-05-10T09:16:52.165Z,100036.19
2023-05-10T09:19:20.122Z,100045.13
2023-05-10T09:21:48.117Z,100033.47
2023-05-10T09:24:16.173Z,100044.28
2023-05-10T09:26:48.884Z,100038.06
2023-05-10T09:29:18.367Z,100036.44
2023-05-10T09:31:47.876Z,100030.22
2023-05-10T09:34:21.661Z,100037.25
2023-05-10T09:36:54.380Z,100034.53
2023-05-10T09:39:24.893Z,100026.44
2023-05-10T09:41:53.981Z,100024.81
2023-05-10T09:44:23.398Z,100007.75
2023-05-10T09:46:53.748Z,100018.56
2023-05-10T09:49:21.894Z,100017.72
2023-05-10T09:51:49.866Z,100019.41
2023-05-10T09:54:18.428Z,100019.41
2023-05-10T09:56:46.478Z,100022.31
2023-05-10T09:59:14.524Z,100019.41
2023-05-10T10:01:44.086Z,100007.75
2023-05-10T10:04:12.701Z,100014.81
2023-05-10T10:06:40.800Z,100015.84
2023-05-10T10:09:09.022Z,100001.78
2023-05-10T10:11:37.743Z,100009.41
2023-05-10T10:14:05.700Z,99998.81
2023-05-10T10:16:33.906Z,99999.88
2023-05-10T10:19:03.423Z,99992.38
2023-05-10T10:21:32.128Z,99991.53
2023-05-10T10:24:00.056Z,99992.38
2023-05-10T10:26:28.080Z,100004.00
2023-05-10T10:29:02.588Z,99992.38
2023-05-10T10:31:34.935Z,99986.97
2023-05-10T10:34:07.830Z,99993.19
2023-05-10T10:36:41.907Z,99979.69
2023-05-10T10:39:11.670Z,99993.19
2023-05-10T10:41:42.036Z,99984.03
2023-05-10T10:44:26.116Z,99984.84
2023-05-10T10:47:14.243Z,99980.31
2023-05-10T10:49:52.392Z,99982.75
2023-05-10T10:52:24.829Z,99979.03
2023-05-10T10:54:53.865Z,99976.31
2023-05-10T10:57:22.714Z,99980.88
2023-05-10T10:59:50.904Z,99973.63
2023-05-10T11:02:45.284Z,99971.75
2023-05-10T11:05:46.006Z,99974.44
2023-05-10T11:08:18.810Z,99974.19
2023-05-10T11:11:05.338Z,99969.84
2023-05-10T11:13:35.456Z,99967.97
2023-05-10T11:16:16.491Z,99968.78
2023-05-10T11:18:55.080Z,99943.91
2023-05-10T11:21:24.693Z,99948.25
2023-05-10T11:23:57.072Z,99943.91
2023-05-10T11:26:26.614Z,99943.91
2023-05-10T11:28:56.226Z,99954.72
2023-05-10T11:31:24.542Z,99944.72
2023-05-10T11:33:53.084Z,99956.34
2023-05-10T11:36:22.096Z,99956.34
2023-05-10T11:38:51.450Z,99942.84
2023-05-10T11:41:20.145Z,99944.47
2023-05-10T11:43:49.865Z,99933.66
2023-05-10T11:46:18.384Z,99943.66
2023-05-10T11:48:46.416Z,99937.44
2023-05-10T11:51:29.403Z,99925.56
2023-05-10T11:53:59.167Z,99925.56
2023-05-10T11:56:28.014Z,99932.84
2023-05-10T11:58:56.794Z,99927.22
2023-05-10T12:01:24.946Z,99914.53
2023-05-10T12:03:53.836Z,99922.63
2023-05-10T12:06:22.051Z,99928.88
2023-05-10T12:08:53.589Z,99920.75
2023-05-10T12:11:26.230Z,99922.44
2023-05-10T12:13:54.205Z,99918.88
2023-05-10T12:16:23.719Z,99918.66
2023-05-10T12:18:52.489Z,99908.91
2023-05-10T12:21:20.930Z,99918.88
2023-05-10T12:23:49.073Z,99899.16
2023-05-10T12:26:17.091Z,99914.31
2023-05-10T12:28:46.483Z,99904.34
2023-05-10T12:31:14.383Z,99918.66
2023-05-10T12:33:43.821Z,99907.84
2023-05-10T12:36:11.798Z,99920.28
2023-05-10T12:38:40.259Z,99903.25
2023-05-10T12:41:08.843Z,99914.88
2023-05-10T12:43:36.900Z,99917.59
2023-05-10T12:46:09.855Z,99914.88
2023-05-10T12:48:38.053Z,99902.19
2023-05-10T12:51:06.286Z,99904.09
2023-05-10T12:53:34.228Z,99899.50
2023-05-10T12:56:02.181Z,99894.94
2023-05-10T12:58:36.093Z,99901.97
2023-05-10T13:01:05.233Z,99891.16
2023-05-10T13:03:34.629Z,99891.16
2023-05-10T13:06:02.595Z,99898.22
2023-05-10T13:08:34.443Z,99896.09
2023-05-10T13:11:02.689Z,99886.38
2023-05-10T13:13:30.682Z,99884.25
2023-05-10T13:15:58.678Z,99870.75
2023-05-10T13:18:27.407Z,99866.16
2023-05-10T13:20:57.752Z,99859.69
2023-05-10T13:23:25.744Z,99857.00
2023-05-10T13:25:53.628Z,99857.81
2023-05-10T13:28:21.531Z,99836.19
2023-05-10T13:30:49.519Z,99847.00
2023-05-10T13:33:17.401Z,99843.25
2023-05-10T13:35:46.176Z,99855.72
2023-05-10T13:38:15.781Z,99852.81
2023-05-10T13:40:43.757Z,99839.31
2023-05-10T13:43:11.721Z,99840.13
2023-05-10T13:45:40.000Z,99837.41
2023-05-10T13:48:08.011Z,99851.53
2023-05-10T13:50:35.960Z,99840.72
2023-05-10T13:53:03.839Z,99841.28
2023-05-10T13:55:33.126Z,99825.06
2023-05-10T13:58:01.184Z,99839.19
2023-05-10T14:00:29.120Z,99838.16
2023-05-10T14:02:57.189Z,99828.97
2023-05-10T14:05:26.532Z,99828.97
2023-05-10T14:07:54.776Z,99837.69
2023-05-10T14:10:22.816Z,99832.00
2023-05-10T14:12:52.099Z,99835.56
2023-05-10T14:15:20.342Z,99833.44
2023-05-10T14:17:48.339Z,99835.09
2023-05-10T14:20:16.286Z,99834.03
2023-05-10T14:22:44.217Z,99829.22
2023-05-10T14:25:12.495Z,99823.81
2023-05-10T14:27:40.545Z,99844.16
2023-05-10T14:30:11.196Z,99834.97
2023-05-10T14:32:39.329Z,99827.66
2023-05-10T14:35:09.466Z,99833.69
2023-05-10T14:37:38.717Z,99829.94
2023-05-10T14:40:08.360Z,99830.50
2023-05-10T14:42:36.266Z,99835.69
2023-05-10T14:45:04.778Z,99830.88
2023-05-10T14:47:34.180Z,99836.03
2023-05-10T14:50:02.406Z,99831.22
2023-05-10T14:52:32.940Z,99831.81
2023-05-10T14:55:02.413Z,99830.50
2023-05-10T14:57:30.740Z,99835.44
2023-05-10T14:59:58.752Z,99834.16
2023-05-10T15:02:27.679Z,99837.44
2023-05-10T15:04:58.436Z,99842.38
2023-05-10T15:07:26.900Z,99824.03
2023-05-10T15:09:55.174Z,99839.78
2023-05-10T15:12:23.090Z,99831.44
2023-05-10T15:14:51.055Z,99828.28
2023-05-10T15:17:18.991Z,99836.94
2023-05-10T15:19:46.944Z,99832.13
2023-05-10T15:22:16.272Z,99831.91
2023-05-10T15:24:44.237Z,99842.72
2023-05-10T15:27:12.213Z,99843.53
2023-05-10T15:29:40.135Z,99835.44
2023-05-10T15:32:08.099Z,99832.13
2023-05-10T15:34:37.080Z,99831.91
2023-05-10T15:37:05.164Z,99831.31
2023-05-10T15:39:34.481Z,99816.16
2023-05-10T15:42:02.622Z,99827.78
2023-05-10T15:44:30.530Z,99829.69
2023-05-10T15:46:58.560Z,99829.69
2023-05-10T15:49:26.742Z,99829.09
2023-05-10T15:51:54.771Z,99825.78
2023-05-10T15:54:22.716Z,99831.44
2023-05-10T15:56:52.049Z,99820.88
2023-05-10T15:59:20.068Z,99828.97
2023-05-10T16:01:48.579Z,99816.75
2023-05-10T16:04:16.621Z,99814.28
2023-05-10T16:06:44.719Z,99819.69
2023-05-10T16:09:12.741Z,99819.94
2023-05-10T16:11:40.799Z,99830.97
2023-05-10T16:14:10.143Z,99826.63
2023-05-10T16:16:38.282Z,99815.81
2023-05-10T16:19:06.288Z,99825.81
2023-05-10T16:21:34.391Z,99825.22
2023-05-10T16:24:02.561Z,99830.03
2023-05-10T16:26:30.462Z,99828.41
2023-05-10T16:28:58.415Z,99827.56
2023-05-10T16:31:27.957Z,99828.63
2023-05-10T16:33:58.888Z,99829.69
2023-05-10T16:36:27.195Z,99831.81
2023-05-10T16:38:55.599Z,99822.28
2023-05-10T16:41:23.716Z,99826.03
2023-05-10T16:43:51.739Z,99827.34
2023-05-10T16:46:19.710Z,99825.69
2023-05-10T16:48:49.215Z,99829.69
2023-05-10T16:51:17.184Z,99826.16
2023-05-10T16:53:45.238Z,99829.94
2023-05-10T16:56:13.229Z,99832.84
2023-05-10T16:58:41.370Z,99827.66
2023-05-10T17:01:09.705Z,99839.56
2023-05-10T17:03:37.956Z,99837.91
2023-05-10T17:06:08.790Z,99825.44
2023-05-10T17:08:36.771Z,99843.56
2023-05-10T17:11:04.939Z,99835.66
2023-05-10T17:13:35.141Z,99843.78
2023-05-10T17:16:04.873Z,99842.94
2023-05-10T17:18:33.077Z,99837.53
2023-05-10T17:21:01.065Z,99854.84
2023-05-10T17:23:30.570Z,99849.66
2023-05-10T17:26:01.489Z,99854.00
2023-05-10T17:28:29.710Z,99858.81
2023-05-10T17:30:58.556Z,99857.19
2023-05-10T17:33:26.438Z,99854.72
2023-05-10T17:35:54.406Z,99859.28
2023-05-10T17:38:22.421Z,99863.03
2023-05-10T17:40:52.438Z,99861.41
2023-05-10T17:43:21.519Z,99855.41
2023-05-10T17:45:50.852Z,99859.16
2023-05-10T17:48:18.866Z,99861.28
2023-05-10T17:50:46.945Z,99860.47
2023-05-10T17:53:14.909Z,99861.50
2023-05-10T17:55:43.695Z,99864.44
2023-05-10T17:58:13.562Z,99861.75
2023-05-10T18:00:41.763Z,99871.91
2023-05-10T18:03:09.695Z,99856.78
2023-05-10T18:05:38.173Z,99860.50
2023-05-10T18:08:07.270Z,99865.09
2023-05-10T18:10:35.308Z,99860.75
2023-05-10T18:13:06.887Z,99859.94
2023-05-10T18:15:37.538Z,99863.69
2023-05-10T18:18:08.287Z,99863.69
2023-05-10T18:20:36.396Z,99865.56
2023-05-10T18:23:04.357Z,99872.84
2023-05-10T18:25:32.417Z,99875.56
2023-05-10T18:28:00.470Z,99878.25
2023-05-10T18:30:28.410Z,99882.00
2023-05-10T18:32:58.147Z,99874.16
2023-05-10T18:35:26.174Z,99880.38
2023-05-10T18:37:54.157Z,99884.13
2023-05-10T18:40:22.336Z,99880.84
2023-05-10T18:42:50.894Z,99890.81
2023-05-10T18:45:19.329Z,99893.53
2023-05-10T18:47:48.419Z,99890.00
2023-05-10T18:50:18.225Z,99899.16
2023-05-10T18:52:46.443Z,99901.25
2023-05-10T18:55:15.524Z,99895.84
2023-05-10T18:57:43.653Z,99899.59
2023-05-10T19:00:12.755Z,99893.38
2023-05-10T19:02:41.237Z,99897.38
2023-05-10T19:05:09.970Z,99902.78
2023-05-10T19:07:40.670Z,99909.22
2023-05-10T19:10:09.404Z,99907.56
2023-05-10T19:12:37.507Z,99901.34
2023-05-10T19:15:06.250Z,99904.06
2023-05-10T19:17:36.291Z,99908.63
2023-05-10T19:20:05.633Z,99904.28
2023-05-10T19:22:45.537Z,99898.88
2023-05-10T19:25:24.383Z,99911.34
2023-05-10T19:27:52.491Z,99914.25
2023-05-10T19:30:20.453Z,99909.69
2023-05-10T19:32:48.397Z,99912.38
2023-05-10T19:35:16.950Z,99906.16
2023-05-10T19:37:47.229Z,99903.47
2023-05-10T19:40:17.477Z,99895.56
2023-05-10T19:42:47.031Z,99896.41
2023-05-10T19:45:15.995Z,99904.75
2023-05-10T19:47:44.305Z,99897.69
2023-05-10T19:50:13.966Z,99903.31
2023-05-10T19:52:42.488Z,99905.19
2023-05-10T19:55:11.219Z,99892.97
2023-05-10T19:57:39.235Z,99897.56
2023-05-10T20:00:10.795Z,99887.78
2023-05-10T20:02:38.952Z,99888.63
2023-05-10T20:05:07.867Z,99890.75
2023-05-10T20:07:35.861Z,99880.75
2023-05-10T20:10:04.066Z,99882.84
2023-05-10T20:12:32.389Z,99876.63
2023-05-10T20:15:00.656Z,99882.84
2023-05-10T20:17:30.098Z,99881.22
2023-05-10T20:19:58.180Z,99884.94
2023-05-10T20:22:26.374Z,99878.72
2023-05-10T20:24:56.005Z,99876.28
2023-05-10T20:27:24.258Z,99878.97
2023-05-10T20:29:52.221Z,99874.41
2023-05-10T20:32:20.203Z,99880.63
2023-05-10T20:34:49.710Z,99876.84
2023-05-10T20:37:21.345Z,99873.31
2023-05-10T20:39:50.531Z,99874.16
2023-05-10T20:42:18.602Z,99884.94
2023-05-10T20:44:46.870Z,99872.50
2023-05-10T20:47:15.468Z,99873.31
2023-05-10T20:49:43.765Z,99869.81
2023-05-10T20:52:13.199Z,99876.03
2023-05-10T20:54:41.222Z,99881.69
2023-05-10T20:57:09.207Z,99869.22
2023-05-10T20:59:37.213Z,99861.09
2023-05-10T21:02:05.226Z,99862.19
2023-05-10T21:04:33.140Z,99858.88
2023-05-10T21:07:01.193Z,99864.28
2023-05-10T21:09:30.581Z,99869.66
2023-05-10T21:11:58.937Z,99865.34
2023-05-10T21:14:26.934Z,99861.81
2023-05-10T21:16:54.915Z,99869.91
2023-05-10T21:19:22.834Z,99855.81
2023-05-10T21:21:50.785Z,99865.56
2023-05-10T21:24:18.783Z,99859.34
2023-05-10T21:26:48.360Z,99860.41
2023-05-10T21:29:18.250Z,99860.41
2023-05-10T21:31:46.305Z,99861.44
2023-05-10T21:34:14.938Z,99858.72
2023-05-10T21:36:43.061Z,99857.09
2023-05-10T21:39:12.323Z,99858.72
2023-05-10T21:41:40.279Z,99863.09
2023-05-10T21:44:09.679Z,99860.41
2023-05-10T21:46:37.655Z,99856.84
2023-05-10T21:49:05.843Z,99866.84
2023-05-10T21:51:33.805Z,99861.44
2023-05-10T21:54:01.846Z,99863.91
2023-05-10T21:56:29.845Z,99859.34
2023-05-10T21:58:58.111Z,99860.41
2023-05-10T22:01:27.880Z,99866.63
2023-05-10T22:03:56.084Z,99860.41
2023-05-10T22:06:24.138Z,99863.53
2023-05-10T22:08:52.375Z,99867.28
2023-05-10T22:11:21.854Z,99860.25
2023-05-10T22:13:49.863Z,99858.59
2023-05-10T22:16:17.949Z,99858.59
2023-05-10T22:18:47.348Z,99846.16
2023-05-10T22:21:15.396Z,99860.69
2023-05-10T22:23:43.402Z,99853.66
2023-05-10T22:26:11.414Z,99842.84
2023-05-10T22:28:39.368Z,99840.16
2023-05-10T22:31:11.127Z,99845.34
2023-05-10T22:33:39.426Z,99841.22
2023-05-10T22:36:09.573Z,99842.03
2023-05-10T22:38:37.614Z,99837.69
2023-05-10T22:41:05.657Z,99838.72
2023-05-10T22:43:33.835Z,99838.72
2023-05-10T22:46:01.841Z,99837.91
2023-05-10T22:48:29.911Z,99826.06
2023-05-10T22:51:00.868Z,99826.91
2023-05-10T22:53:30.196Z,99836.63
2023-05-10T22:55:58.251Z,99826.91
2023-05-10T22:58:26.404Z,99830.41
2023-05-10T23:00:54.833Z,99821.50
2023-05-10T23:03:23.080Z,99835.81
2023-05-10T23:05:51.183Z,99834.75
2023-05-10T23:08:22.738Z,99821.72
2023-05-10T23:10:52.030Z,99817.13
2023-05-10T23:13:21.021Z,99812.56
2023-05-10T23:15:49.436Z,99813.63
2023-05-10T23:18:17.778Z,99821.13
2023-05-10T23:20:45.842Z,99819.47
2023-05-10T23:23:13.796Z,99820.50
2023-05-10T23:25:41.726Z,99813.47
2023-05-10T23:28:11.224Z,99817.25
2023-05-10T23:30:39.189Z,99818.28
2023-05-10T23:33:08.498Z,99818.28
2023-05-10T23:35:36.505Z,99815.56
2023-05-10T23:38:04.519Z,99810.19
2023-05-10T23:40:32.526Z,99812.28
2023-05-10T23:43:00.491Z,99823.31
2023-05-10T23:45:30.086Z,99821.44
2023-05-10T23:47:58.195Z,99820.63
2023-05-10T23:50:26.280Z,99816.03
2023-05-10T23:52:54.287Z,99819.81
2023-05-10T23:55:22.226Z,99822.50
2023-05-10T23:57:50.246Z,99809.81
